sensor_id;sensor_type;location;lat;lon;timestamp;P1;durP1;ratioP1;P2;durP2;ratioP2
58669;SDS011;44439;47.924;10.198;2024-01-30T00:00:31;6.00;;;4.20;;
58669;SDS011;44439;47.924;10.198;2024-01-30T00:02:59;5.47;;;3.70;;
58669;SDS011;44439;47.924;10.198;2024-01-30T00:05:24;6.18;;;3.70;;
58669;SDS011;44439;47.924;10.198;2024-01-30T00:07:50;5.90;;;4.10;;
58669;SDS011;44439;47.924;10.198;2024-01-30T00:10:16;7.57;;;5.57;;
58669;SDS011;44439;47.924;10.198;2024-01-30T00:12:42;5.65;;;3.78;;
58669;SDS011;44439;47.924;10.198;2024-01-30T00:15:07;7.43;;;5.15;;
58669;SDS011;44439;47.924;10.198;2024-01-30T00:17:34;5.03;;;3.88;;
58669;SDS011;44439;47.924;10.198;2024-01-30T00:20:03;5.25;;;3.45;;
58669;SDS011;44439;47.924;10.198;2024-01-30T00:22:38;5.18;;;3.78;;
58669;SDS011;44439;47.924;10.198;2024-01-30T00:25:03;7.05;;;4.32;;
58669;SDS011;44439;47.924;10.198;2024-01-30T00:27:29;5.90;;;3.70;;
58669;SDS011;44439;47.924;10.198;2024-01-30T00:29:54;4.40;;;2.95;;
58669;SDS011;44439;47.924;10.198;2024-01-30T00:32:27;3.38;;;2.80;;
58669;SDS011;44439;47.924;10.198;2024-01-30T00:34:52;4.28;;;2.90;;
58669;SDS011;44439;47.924;10.198;2024-01-30T00:37:18;3.97;;;2.38;;
58669;SDS011;44439;47.924;10.198;2024-01-30T00:39:43;3.58;;;2.75;;
58669;SDS011;44439;47.924;10.198;2024-01-30T00:42:10;3.92;;;2.78;;
58669;SDS011;44439;47.924;10.198;2024-01-30T00:44:36;3.00;;;2.40;;
58669;SDS011;44439;47.924;10.198;2024-01-30T00:47:07;4.30;;;2.45;;
58669;SDS011;44439;47.924;10.198;2024-01-30T00:49:33;3.05;;;2.35;;
58669;SDS011;44439;47.924;10.198;2024-01-30T00:54:33;2.72;;;1.90;;
58669;SDS011;44439;47.924;10.198;2024-01-30T00:59:34;3.80;;;2.70;;
58669;SDS011;44439;47.924;10.198;2024-01-30T01:02:19;4.63;;;2.53;;
58669;SDS011;44439;47.924;10.198;2024-01-30T01:04:45;3.47;;;2.28;;
58669;SDS011;44439;47.924;10.198;2024-01-30T01:07:11;3.55;;;2.17;;
58669;SDS011;44439;47.924;10.198;2024-01-30T01:09:36;2.30;;;1.80;;
58669;SDS011;44439;47.924;10.198;2024-01-30T01:12:02;3.50;;;2.00;;
58669;SDS011;44439;47.924;10.198;2024-01-30T01:14:31;3.78;;;2.08;;
58669;SDS011;44439;47.924;10.198;2024-01-30T01:16:56;3.22;;;2.30;;
58669;SDS011;44439;47.924;10.198;2024-01-30T01:19:22;4.22;;;3.17;;
58669;SDS011;44439;47.924;10.198;2024-01-30T01:21:48;3.20;;;2.20;;
58669;SDS011;44439;47.924;10.198;2024-01-30T01:24:13;3.83;;;2.13;;
58669;SDS011;44439;47.924;10.198;2024-01-30T01:26:39;4.07;;;2.38;;
58669;SDS011;44439;47.924;10.198;2024-01-30T01:29:05;3.30;;;2.17;;
58669;SDS011;44439;47.924;10.198;2024-01-30T01:34:11;4.97;;;2.70;;
58669;SDS011;44439;47.924;10.198;2024-01-30T01:36:37;3.67;;;2.45;;
58669;SDS011;44439;47.924;10.198;2024-01-30T01:39:02;3.45;;;2.08;;
58669;SDS011;44439;47.924;10.198;2024-01-30T01:41:41;5.88;;;2.30;;
58669;SDS011;44439;47.924;10.198;2024-01-30T01:44:07;2.67;;;2.25;;
58669;SDS011;44439;47.924;10.198;2024-01-30T01:46:33;3.63;;;2.00;;
58669;SDS011;44439;47.924;10.198;2024-01-30T01:48:59;3.35;;;2.10;;
58669;SDS011;44439;47.924;10.198;2024-01-30T01:51:27;3.50;;;2.22;;
58669;SDS011;44439;47.924;10.198;2024-01-30T01:53:53;3.17;;;1.95;;
58669;SDS011;44439;47.924;10.198;2024-01-30T01:56:19;3.75;;;2.13;;
58669;SDS011;44439;47.924;10.198;2024-01-30T01:58:44;3.58;;;2.42;;
58669;SDS011;44439;47.924;10.198;2024-01-30T02:01:13;3.40;;;2.25;;
58669;SDS011;44439;47.924;10.198;2024-01-30T02:03:40;3.35;;;2.05;;
58669;SDS011;44439;47.924;10.198;2024-01-30T02:06:27;2.67;;;1.98;;
58669;SDS011;44439;47.924;10.198;2024-01-30T02:08:52;3.00;;;1.90;;
58669;SDS011;44439;47.924;10.198;2024-01-30T02:11:19;2.30;;;1.55;;
58669;SDS011;44439;47.924;10.198;2024-01-30T02:13:45;2.42;;;1.90;;
58669;SDS011;44439;47.924;10.198;2024-01-30T02:16:10;3.60;;;2.40;;
58669;SDS011;44439;47.924;10.198;2024-01-30T02:18:35;3.50;;;2.10;;
58669;SDS011;44439;47.924;10.198;2024-01-30T02:21:06;4.65;;;1.75;;
58669;SDS011;44439;47.924;10.198;2024-01-30T02:23:32;4.60;;;2.42;;
58669;SDS011;44439;47.924;10.198;2024-01-30T02:25:58;3.78;;;1.90;;
58669;SDS011;44439;47.924;10.198;2024-01-30T02:28:24;2.25;;;1.77;;
58669;SDS011;44439;47.924;10.198;2024-01-30T02:30:49;2.47;;;1.77;;
58669;SDS011;44439;47.924;10.198;2024-01-30T02:33:14;3.42;;;1.80;;
58669;SDS011;44439;47.924;10.198;2024-01-30T02:35:40;2.13;;;1.63;;
58669;SDS011;44439;47.924;10.198;2024-01-30T02:38:05;3.72;;;1.70;;
58669;SDS011;44439;47.924;10.198;2024-01-30T02:40:31;2.58;;;1.70;;
58669;SDS011;44439;47.924;10.198;2024-01-30T02:42:57;3.20;;;1.40;;
58669;SDS011;44439;47.924;10.198;2024-01-30T02:45:23;2.13;;;1.55;;
58669;SDS011;44439;47.924;10.198;2024-01-30T02:47:49;2.92;;;1.60;;
58669;SDS011;44439;47.924;10.198;2024-01-30T02:50:14;2.47;;;1.30;;
58669;SDS011;44439;47.924;10.198;2024-01-30T02:52:40;2.60;;;1.73;;
58669;SDS011;44439;47.924;10.198;2024-01-30T02:55:05;2.88;;;1.67;;
58669;SDS011;44439;47.924;10.198;2024-01-30T02:57:31;3.88;;;1.50;;
58669;SDS011;44439;47.924;10.198;2024-01-30T02:59:56;3.40;;;2.03;;
58669;SDS011;44439;47.924;10.198;2024-01-30T03:02:21;2.47;;;1.52;;
58669;SDS011;44439;47.924;10.198;2024-01-30T03:04:47;2.00;;;1.38;;
58669;SDS011;44439;47.924;10.198;2024-01-30T03:07:12;3.13;;;1.90;;
58669;SDS011;44439;47.924;10.198;2024-01-30T03:09:38;3.42;;;2.28;;
58669;SDS011;44439;47.924;10.198;2024-01-30T03:12:04;2.67;;;2.00;;
58669;SDS011;44439;47.924;10.198;2024-01-30T03:14:30;4.57;;;1.95;;
58669;SDS011;44439;47.924;10.198;2024-01-30T03:16:56;4.60;;;1.75;;
58669;SDS011;44439;47.924;10.198;2024-01-30T03:19:32;2.55;;;1.80;;
58669;SDS011;44439;47.924;10.198;2024-01-30T03:21:58;3.20;;;1.80;;
58669;SDS011;44439;47.924;10.198;2024-01-30T03:24:24;4.82;;;1.70;;
58669;SDS011;44439;47.924;10.198;2024-01-30T03:26:49;4.80;;;1.63;;
58669;SDS011;44439;47.924;10.198;2024-01-30T03:29:15;3.92;;;1.77;;
58669;SDS011;44439;47.924;10.198;2024-01-30T03:31:41;3.22;;;2.10;;
58669;SDS011;44439;47.924;10.198;2024-01-30T03:34:12;3.75;;;2.80;;
58669;SDS011;44439;47.924;10.198;2024-01-30T03:36:37;3.45;;;2.13;;
58669;SDS011;44439;47.924;10.198;2024-01-30T03:39:03;2.95;;;1.80;;
58669;SDS011;44439;47.924;10.198;2024-01-30T03:41:29;4.22;;;2.28;;
58669;SDS011;44439;47.924;10.198;2024-01-30T03:43:55;4.72;;;2.10;;
58669;SDS011;44439;47.924;10.198;2024-01-30T03:46:20;4.03;;;2.15;;
58669;SDS011;44439;47.924;10.198;2024-01-30T03:48:46;2.53;;;1.83;;
58669;SDS011;44439;47.924;10.198;2024-01-30T03:51:16;3.33;;;1.50;;
58669;SDS011;44439;47.924;10.198;2024-01-30T03:53:42;3.08;;;1.92;;
58669;SDS011;44439;47.924;10.198;2024-01-30T03:56:08;4.07;;;2.28;;
58669;SDS011;44439;47.924;10.198;2024-01-30T03:58:34;3.75;;;2.70;;
58669;SDS011;44439;47.924;10.198;2024-01-30T04:01:00;4.05;;;2.92;;
58669;SDS011;44439;47.924;10.198;2024-01-30T04:03:26;5.88;;;3.67;;
58669;SDS011;44439;47.924;10.198;2024-01-30T04:05:51;4.57;;;3.30;;
58669;SDS011;44439;47.924;10.198;2024-01-30T04:08:17;6.35;;;4.68;;
58669;SDS011;44439;47.924;10.198;2024-01-30T04:10:43;8.00;;;5.57;;
58669;SDS011;44439;47.924;10.198;2024-01-30T04:13:12;11.52;;;7.53;;
58669;SDS011;44439;47.924;10.198;2024-01-30T04:25:27;4.35;;;2.95;;
58669;SDS011;44439;47.924;10.198;2024-01-30T04:31:19;3.70;;;2.65;;
58669;SDS011;44439;47.924;10.198;2024-01-30T04:33:44;5.68;;;2.97;;
58669;SDS011;44439;47.924;10.198;2024-01-30T04:36:12;5.20;;;3.00;;
58669;SDS011;44439;47.924;10.198;2024-01-30T04:38:42;6.15;;;2.70;;
58669;SDS011;44439;47.924;10.198;2024-01-30T04:41:10;4.20;;;2.92;;
58669;SDS011;44439;47.924;10.198;2024-01-30T04:43:35;3.80;;;2.85;;
58669;SDS011;44439;47.924;10.198;2024-01-30T04:46:01;4.55;;;2.60;;
58669;SDS011;44439;47.924;10.198;2024-01-30T04:48:26;5.10;;;3.25;;
58669;SDS011;44439;47.924;10.198;2024-01-30T04:50:52;4.15;;;2.90;;
58669;SDS011;44439;47.924;10.198;2024-01-30T04:53:17;4.13;;;3.00;;
58669;SDS011;44439;47.924;10.198;2024-01-30T04:55:44;4.95;;;3.00;;
58669;SDS011;44439;47.924;10.198;2024-01-30T04:58:09;7.05;;;3.58;;
58669;SDS011;44439;47.924;10.198;2024-01-30T05:00:35;5.57;;;4.43;;
58669;SDS011;44439;47.924;10.198;2024-01-30T05:03:00;8.07;;;4.30;;
58669;SDS011;44439;47.924;10.198;2024-01-30T05:05:26;8.23;;;5.28;;
58669;SDS011;44439;47.924;10.198;2024-01-30T05:07:51;4.38;;;3.08;;
58669;SDS011;44439;47.924;10.198;2024-01-30T05:10:16;6.25;;;4.20;;
58669;SDS011;44439;47.924;10.198;2024-01-30T05:12:42;7.63;;;4.95;;
58669;SDS011;44439;47.924;10.198;2024-01-30T05:15:07;9.52;;;5.85;;
58669;SDS011;44439;47.924;10.198;2024-01-30T05:17:33;7.72;;;4.50;;
58669;SDS011;44439;47.924;10.198;2024-01-30T05:19:59;6.90;;;4.72;;
58669;SDS011;44439;47.924;10.198;2024-01-30T05:22:24;7.65;;;4.65;;
58669;SDS011;44439;47.924;10.198;2024-01-30T05:24:49;8.15;;;4.90;;
58669;SDS011;44439;47.924;10.198;2024-01-30T05:27:15;6.93;;;4.32;;
58669;SDS011;44439;47.924;10.198;2024-01-30T05:29:40;4.43;;;3.22;;
58669;SDS011;44439;47.924;10.198;2024-01-30T05:32:06;7.00;;;4.35;;
58669;SDS011;44439;47.924;10.198;2024-01-30T05:34:31;5.10;;;4.07;;
58669;SDS011;44439;47.924;10.198;2024-01-30T05:36:57;4.88;;;3.80;;
58669;SDS011;44439;47.924;10.198;2024-01-30T05:39:23;5.40;;;3.35;;
58669;SDS011;44439;47.924;10.198;2024-01-30T05:41:48;10.75;;;6.13;;
58669;SDS011;44439;47.924;10.198;2024-01-30T05:44:14;21.88;;;11.73;;
58669;SDS011;44439;47.924;10.198;2024-01-30T05:46:39;18.10;;;13.23;;
58669;SDS011;44439;47.924;10.198;2024-01-30T05:49:04;19.45;;;14.20;;
58669;SDS011;44439;47.924;10.198;2024-01-30T05:51:30;20.25;;;12.90;;
58669;SDS011;44439;47.924;10.198;2024-01-30T05:53:56;13.05;;;8.80;;
58669;SDS011;44439;47.924;10.198;2024-01-30T05:56:21;10.95;;;7.38;;
58669;SDS011;44439;47.924;10.198;2024-01-30T05:58:47;10.80;;;9.00;;
58669;SDS011;44439;47.924;10.198;2024-01-30T06:01:12;15.80;;;10.90;;
58669;SDS011;44439;47.924;10.198;2024-01-30T06:03:38;6.57;;;5.53;;
58669;SDS011;44439;47.924;10.198;2024-01-30T06:06:05;5.13;;;3.63;;
58669;SDS011;44439;47.924;10.198;2024-01-30T06:08:39;3.38;;;2.50;;
58669;SDS011;44439;47.924;10.198;2024-01-30T06:11:04;4.32;;;2.90;;
58669;SDS011;44439;47.924;10.198;2024-01-30T06:13:30;4.00;;;2.90;;
58669;SDS011;44439;47.924;10.198;2024-01-30T06:15:56;3.83;;;1.95;;
58669;SDS011;44439;47.924;10.198;2024-01-30T06:18:22;4.35;;;2.10;;
58669;SDS011;44439;47.924;10.198;2024-01-30T06:20:47;4.47;;;2.35;;
58669;SDS011;44439;47.924;10.198;2024-01-30T06:23:12;3.30;;;2.17;;
58669;SDS011;44439;47.924;10.198;2024-01-30T06:25:39;4.15;;;2.33;;
58669;SDS011;44439;47.924;10.198;2024-01-30T06:28:04;5.07;;;3.55;;
58669;SDS011;44439;47.924;10.198;2024-01-30T06:30:30;2.75;;;2.10;;
58669;SDS011;44439;47.924;10.198;2024-01-30T06:32:55;3.45;;;2.28;;
58669;SDS011;44439;47.924;10.198;2024-01-30T06:35:21;2.63;;;1.88;;
58669;SDS011;44439;47.924;10.198;2024-01-30T06:37:47;5.45;;;3.00;;
58669;SDS011;44439;47.924;10.198;2024-01-30T06:40:13;4.97;;;3.15;;
58669;SDS011;44439;47.924;10.198;2024-01-30T06:42:38;3.75;;;2.10;;
58669;SDS011;44439;47.924;10.198;2024-01-30T06:45:04;3.03;;;2.13;;
58669;SDS011;44439;47.924;10.198;2024-01-30T06:47:29;3.35;;;1.80;;
58669;SDS011;44439;47.924;10.198;2024-01-30T06:49:56;3.65;;;1.60;;
58669;SDS011;44439;47.924;10.198;2024-01-30T06:52:21;3.13;;;1.60;;
58669;SDS011;44439;47.924;10.198;2024-01-30T06:54:46;3.20;;;1.40;;
58669;SDS011;44439;47.924;10.198;2024-01-30T06:57:11;2.13;;;1.50;;
58669;SDS011;44439;47.924;10.198;2024-01-30T06:59:39;2.38;;;1.83;;
58669;SDS011;44439;47.924;10.198;2024-01-30T07:02:08;1.75;;;1.63;;
58669;SDS011;44439;47.924;10.198;2024-01-30T07:04:34;2.47;;;2.22;;
58669;SDS011;44439;47.924;10.198;2024-01-30T07:07:00;2.70;;;2.10;;
58669;SDS011;44439;47.924;10.198;2024-01-30T07:09:25;2.75;;;1.95;;
58669;SDS011;44439;47.924;10.198;2024-01-30T07:11:51;2.70;;;1.95;;
58669;SDS011;44439;47.924;10.198;2024-01-30T07:14:18;2.08;;;1.75;;
58669;SDS011;44439;47.924;10.198;2024-01-30T07:16:43;2.17;;;1.63;;
58669;SDS011;44439;47.924;10.198;2024-01-30T07:19:08;2.95;;;2.00;;
58669;SDS011;44439;47.924;10.198;2024-01-30T07:21:34;4.28;;;2.28;;
58669;SDS011;44439;47.924;10.198;2024-01-30T07:23:59;5.35;;;4.30;;
58669;SDS011;44439;47.924;10.198;2024-01-30T07:26:25;7.68;;;4.20;;
58669;SDS011;44439;47.924;10.198;2024-01-30T07:28:50;5.72;;;3.97;;
58669;SDS011;44439;47.924;10.198;2024-01-30T07:31:16;4.72;;;3.83;;
58669;SDS011;44439;47.924;10.198;2024-01-30T07:33:41;5.20;;;2.38;;
58669;SDS011;44439;47.924;10.198;2024-01-30T07:36:06;3.58;;;2.20;;
58669;SDS011;44439;47.924;10.198;2024-01-30T07:38:32;4.30;;;2.70;;
58669;SDS011;44439;47.924;10.198;2024-01-30T07:40:57;5.57;;;5.03;;
58669;SDS011;44439;47.924;10.198;2024-01-30T07:43:22;4.47;;;3.85;;
58669;SDS011;44439;47.924;10.198;2024-01-30T07:45:48;4.15;;;3.70;;
58669;SDS011;44439;47.924;10.198;2024-01-30T07:48:13;5.60;;;4.35;;
58669;SDS011;44439;47.924;10.198;2024-01-30T07:50:39;6.70;;;3.47;;
58669;SDS011;44439;47.924;10.198;2024-01-30T07:53:04;6.40;;;3.90;;
58669;SDS011;44439;47.924;10.198;2024-01-30T07:55:29;4.93;;;3.25;;
58669;SDS011;44439;47.924;10.198;2024-01-30T07:57:56;7.68;;;3.38;;
58669;SDS011;44439;47.924;10.198;2024-01-30T08:00:22;7.05;;;4.63;;
58669;SDS011;44439;47.924;10.198;2024-01-30T08:02:47;6.57;;;3.88;;
58669;SDS011;44439;47.924;10.198;2024-01-30T08:05:13;7.32;;;3.58;;
58669;SDS011;44439;47.924;10.198;2024-01-30T08:07:40;6.25;;;2.67;;
58669;SDS011;44439;47.924;10.198;2024-01-30T08:10:08;3.42;;;2.30;;
58669;SDS011;44439;47.924;10.198;2024-01-30T08:12:34;4.32;;;2.13;;
58669;SDS011;44439;47.924;10.198;2024-01-30T08:14:59;4.57;;;3.00;;
58669;SDS011;44439;47.924;10.198;2024-01-30T08:17:24;3.20;;;2.05;;
58669;SDS011;44439;47.924;10.198;2024-01-30T08:19:50;3.65;;;2.03;;
58669;SDS011;44439;47.924;10.198;2024-01-30T08:22:15;3.35;;;2.08;;
58669;SDS011;44439;47.924;10.198;2024-01-30T08:24:40;3.60;;;2.33;;
58669;SDS011;44439;47.924;10.198;2024-01-30T08:27:06;4.95;;;1.50;;
58669;SDS011;44439;47.924;10.198;2024-01-30T08:29:34;3.17;;;1.80;;
58669;SDS011;44439;47.924;10.198;2024-01-30T08:31:59;7.47;;;1.85;;
58669;SDS011;44439;47.924;10.198;2024-01-30T08:34:25;6.93;;;1.80;;
58669;SDS011;44439;47.924;10.198;2024-01-30T08:36:50;3.25;;;1.70;;
58669;SDS011;44439;47.924;10.198;2024-01-30T08:39:16;3.38;;;1.92;;
58669;SDS011;44439;47.924;10.198;2024-01-30T08:41:41;2.30;;;1.52;;
58669;SDS011;44439;47.924;10.198;2024-01-30T08:44:06;5.18;;;2.40;;
58669;SDS011;44439;47.924;10.198;2024-01-30T08:46:32;4.38;;;2.25;;
58669;SDS011;44439;47.924;10.198;2024-01-30T08:48:57;5.10;;;2.13;;
58669;SDS011;44439;47.924;10.198;2024-01-30T08:51:23;4.18;;;1.90;;
58669;SDS011;44439;47.924;10.198;2024-01-30T08:53:48;2.80;;;1.85;;
58669;SDS011;44439;47.924;10.198;2024-01-30T08:56:13;3.00;;;1.95;;
58669;SDS011;44439;47.924;10.198;2024-01-30T08:58:39;2.28;;;1.67;;
58669;SDS011;44439;47.924;10.198;2024-01-30T09:01:04;3.05;;;1.58;;
58669;SDS011;44439;47.924;10.198;2024-01-30T09:03:30;2.63;;;2.05;;
58669;SDS011;44439;47.924;10.198;2024-01-30T09:05:56;4.53;;;1.80;;
58669;SDS011;44439;47.924;10.198;2024-01-30T09:08:21;2.25;;;1.60;;
58669;SDS011;44439;47.924;10.198;2024-01-30T09:10:46;2.78;;;1.70;;
58669;SDS011;44439;47.924;10.198;2024-01-30T09:13:11;4.47;;;1.73;;
58669;SDS011;44439;47.924;10.198;2024-01-30T09:15:37;2.47;;;1.70;;
58669;SDS011;44439;47.924;10.198;2024-01-30T09:18:03;3.33;;;1.70;;
58669;SDS011;44439;47.924;10.198;2024-01-30T09:20:28;3.22;;;1.70;;
58669;SDS011;44439;47.924;10.198;2024-01-30T09:22:53;2.08;;;1.40;;
58669;SDS011;44439;47.924;10.198;2024-01-30T09:25:19;5.03;;;2.08;;
58669;SDS011;44439;47.924;10.198;2024-01-30T09:27:44;3.35;;;2.60;;
58669;SDS011;44439;47.924;10.198;2024-01-30T09:30:09;2.95;;;1.85;;
58669;SDS011;44439;47.924;10.198;2024-01-30T09:32:35;2.65;;;1.50;;
58669;SDS011;44439;47.924;10.198;2024-01-30T09:35:00;2.80;;;1.67;;
58669;SDS011;44439;47.924;10.198;2024-01-30T09:37:25;3.85;;;1.60;;
58669;SDS011;44439;47.924;10.198;2024-01-30T09:39:51;6.93;;;3.28;;
58669;SDS011;44439;47.924;10.198;2024-01-30T09:42:35;4.35;;;2.92;;
58669;SDS011;44439;47.924;10.198;2024-01-30T09:45:01;5.35;;;3.60;;
58669;SDS011;44439;47.924;10.198;2024-01-30T09:47:28;7.05;;;3.70;;
58669;SDS011;44439;47.924;10.198;2024-01-30T09:49:56;5.30;;;3.40;;
58669;SDS011;44439;47.924;10.198;2024-01-30T09:52:22;6.18;;;3.38;;
58669;SDS011;44439;47.924;10.198;2024-01-30T09:54:47;4.60;;;3.05;;
58669;SDS011;44439;47.924;10.198;2024-01-30T09:57:15;4.40;;;2.55;;
58669;SDS011;44439;47.924;10.198;2024-01-30T09:59:41;3.20;;;2.25;;
58669;SDS011;44439;47.924;10.198;2024-01-30T10:02:07;4.45;;;2.30;;
58669;SDS011;44439;47.924;10.198;2024-01-30T10:04:33;3.80;;;2.13;;
58669;SDS011;44439;47.924;10.198;2024-01-30T10:07:00;3.22;;;2.00;;
58669;SDS011;44439;47.924;10.198;2024-01-30T10:09:27;2.80;;;2.17;;
58669;SDS011;44439;47.924;10.198;2024-01-30T10:11:52;4.25;;;1.70;;
58669;SDS011;44439;47.924;10.198;2024-01-30T10:14:33;5.70;;;2.45;;
58669;SDS011;44439;47.924;10.198;2024-01-30T10:17:02;5.07;;;2.88;;
58669;SDS011;44439;47.924;10.198;2024-01-30T10:19:39;4.45;;;2.38;;
58669;SDS011;44439;47.924;10.198;2024-01-30T10:22:16;4.53;;;2.08;;
58669;SDS011;44439;47.924;10.198;2024-01-30T10:27:34;5.53;;;2.10;;
58669;SDS011;44439;47.924;10.198;2024-01-30T10:30:13;5.53;;;2.63;;
58669;SDS011;44439;47.924;10.198;2024-01-30T10:33:34;2.65;;;1.90;;
58669;SDS011;44439;47.924;10.198;2024-01-30T10:36:01;3.72;;;1.90;;
58669;SDS011;44439;47.924;10.198;2024-01-30T10:38:28;3.28;;;1.90;;
58669;SDS011;44439;47.924;10.198;2024-01-30T10:40:56;2.40;;;1.80;;
58669;SDS011;44439;47.924;10.198;2024-01-30T10:43:22;2.63;;;1.80;;
58669;SDS011;44439;47.924;10.198;2024-01-30T10:45:48;6.25;;;2.30;;
58669;SDS011;44439;47.924;10.198;2024-01-30T10:48:15;4.20;;;2.08;;
58669;SDS011;44439;47.924;10.198;2024-01-30T10:50:41;3.55;;;2.00;;
58669;SDS011;44439;47.924;10.198;2024-01-30T10:53:08;3.42;;;2.22;;
58669;SDS011;44439;47.924;10.198;2024-01-30T10:55:34;3.63;;;2.70;;
58669;SDS011;44439;47.924;10.198;2024-01-30T10:57:59;3.75;;;2.85;;
58669;SDS011;44439;47.924;10.198;2024-01-30T11:00:25;4.45;;;2.80;;
58669;SDS011;44439;47.924;10.198;2024-01-30T11:02:51;6.00;;;3.00;;
58669;SDS011;44439;47.924;10.198;2024-01-30T11:05:23;5.80;;;3.17;;
58669;SDS011;44439;47.924;10.198;2024-01-30T11:07:50;4.85;;;3.20;;
58669;SDS011;44439;47.924;10.198;2024-01-30T11:10:15;4.95;;;2.88;;
58669;SDS011;44439;47.924;10.198;2024-01-30T11:12:40;5.15;;;3.03;;
58669;SDS011;44439;47.924;10.198;2024-01-30T11:15:08;4.28;;;3.00;;
58669;SDS011;44439;47.924;10.198;2024-01-30T11:22:55;6.80;;;3.22;;
58669;SDS011;44439;47.924;10.198;2024-01-30T11:25:21;5.28;;;3.63;;
58669;SDS011;44439;47.924;10.198;2024-01-30T11:27:49;4.57;;;3.42;;
58669;SDS011;44439;47.924;10.198;2024-01-30T11:30:28;6.32;;;3.55;;
58669;SDS011;44439;47.924;10.198;2024-01-30T11:38:09;7.80;;;3.80;;
58669;SDS011;44439;47.924;10.198;2024-01-30T11:40:36;10.50;;;4.45;;
58669;SDS011;44439;47.924;10.198;2024-01-30T11:43:03;6.57;;;4.05;;
58669;SDS011;44439;47.924;10.198;2024-01-30T11:45:32;6.95;;;3.85;;
58669;SDS011;44439;47.924;10.198;2024-01-30T11:47:57;6.40;;;3.88;;
58669;SDS011;44439;47.924;10.198;2024-01-30T11:50:25;9.15;;;4.35;;
58669;SDS011;44439;47.924;10.198;2024-01-30T11:52:50;6.10;;;3.78;;
58669;SDS011;44439;47.924;10.198;2024-01-30T11:55:16;9.10;;;4.05;;
58669;SDS011;44439;47.924;10.198;2024-01-30T11:57:42;5.70;;;3.72;;
58669;SDS011;44439;47.924;10.198;2024-01-30T12:00:18;5.72;;;3.55;;
58669;SDS011;44439;47.924;10.198;2024-01-30T12:02:49;4.97;;;3.30;;
58669;SDS011;44439;47.924;10.198;2024-01-30T12:05:15;5.47;;;3.42;;
58669;SDS011;44439;47.924;10.198;2024-01-30T12:07:43;6.40;;;2.80;;
58669;SDS011;44439;47.924;10.198;2024-01-30T12:10:09;7.35;;;3.17;;
58669;SDS011;44439;47.924;10.198;2024-01-30T12:12:36;5.68;;;3.10;;
58669;SDS011;44439;47.924;10.198;2024-01-30T12:15:01;6.10;;;3.55;;
58669;SDS011;44439;47.924;10.198;2024-01-30T12:17:28;6.70;;;3.40;;
58669;SDS011;44439;47.924;10.198;2024-01-30T12:20:09;7.78;;;3.72;;
58669;SDS011;44439;47.924;10.198;2024-01-30T12:22:36;7.60;;;3.20;;
58669;SDS011;44439;47.924;10.198;2024-01-30T12:25:04;6.68;;;3.47;;
58669;SDS011;44439;47.924;10.198;2024-01-30T12:27:30;5.38;;;3.50;;
58669;SDS011;44439;47.924;10.198;2024-01-30T12:29:56;8.23;;;2.65;;
58669;SDS011;44439;47.924;10.198;2024-01-30T12:32:23;6.43;;;2.97;;
58669;SDS011;44439;47.924;10.198;2024-01-30T12:34:48;5.25;;;3.05;;
58669;SDS011;44439;47.924;10.198;2024-01-30T12:37:13;4.65;;;2.92;;
58669;SDS011;44439;47.924;10.198;2024-01-30T12:39:39;5.40;;;3.13;;
58669;SDS011;44439;47.924;10.198;2024-01-30T12:42:05;5.40;;;3.67;;
58669;SDS011;44439;47.924;10.198;2024-01-30T12:44:30;7.20;;;4.30;;
58669;SDS011;44439;47.924;10.198;2024-01-30T12:46:56;7.35;;;3.97;;
58669;SDS011;44439;47.924;10.198;2024-01-30T12:49:21;8.48;;;4.25;;
58669;SDS011;44439;47.924;10.198;2024-01-30T12:51:46;6.82;;;4.32;;
58669;SDS011;44439;47.924;10.198;2024-01-30T12:54:12;6.60;;;4.47;;
58669;SDS011;44439;47.924;10.198;2024-01-30T12:56:38;11.80;;;6.43;;
58669;SDS011;44439;47.924;10.198;2024-01-30T12:59:03;8.25;;;5.30;;
58669;SDS011;44439;47.924;10.198;2024-01-30T13:01:28;7.72;;;4.78;;
58669;SDS011;44439;47.924;10.198;2024-01-30T13:03:54;8.07;;;5.43;;
58669;SDS011;44439;47.924;10.198;2024-01-30T13:06:22;22.13;;;12.75;;
58669;SDS011;44439;47.924;10.198;2024-01-30T13:08:47;8.43;;;5.38;;
58669;SDS011;44439;47.924;10.198;2024-01-30T13:11:12;6.47;;;4.68;;
58669;SDS011;44439;47.924;10.198;2024-01-30T13:13:38;7.45;;;4.55;;
58669;SDS011;44439;47.924;10.198;2024-01-30T13:16:04;11.68;;;6.65;;
58669;SDS011;44439;47.924;10.198;2024-01-30T13:18:30;11.18;;;6.43;;
58669;SDS011;44439;47.924;10.198;2024-01-30T13:20:56;10.52;;;6.07;;
58669;SDS011;44439;47.924;10.198;2024-01-30T13:23:21;9.75;;;5.78;;
58669;SDS011;44439;47.924;10.198;2024-01-30T13:25:46;7.63;;;5.28;;
58669;SDS011;44439;47.924;10.198;2024-01-30T13:28:12;9.80;;;6.05;;
58669;SDS011;44439;47.924;10.198;2024-01-30T13:30:38;8.88;;;6.22;;
58669;SDS011;44439;47.924;10.198;2024-01-30T13:33:03;8.70;;;5.53;;
58669;SDS011;44439;47.924;10.198;2024-01-30T13:35:28;8.35;;;5.20;;
58669;SDS011;44439;47.924;10.198;2024-01-30T13:37:55;7.05;;;5.10;;
58669;SDS011;44439;47.924;10.198;2024-01-30T13:40:20;6.82;;;4.60;;
58669;SDS011;44439;47.924;10.198;2024-01-30T13:42:47;9.23;;;5.03;;
58669;SDS011;44439;47.924;10.198;2024-01-30T13:45:12;13.20;;;9.73;;
58669;SDS011;44439;47.924;10.198;2024-01-30T13:47:38;9.23;;;5.60;;
58669;SDS011;44439;47.924;10.198;2024-01-30T13:50:04;7.88;;;4.93;;
58669;SDS011;44439;47.924;10.198;2024-01-30T13:52:30;8.23;;;5.35;;
58669;SDS011;44439;47.924;10.198;2024-01-30T13:54:55;8.13;;;5.00;;
58669;SDS011;44439;47.924;10.198;2024-01-30T13:57:20;7.22;;;5.35;;
58669;SDS011;44439;47.924;10.198;2024-01-30T13:59:45;6.97;;;4.88;;
58669;SDS011;44439;47.924;10.198;2024-01-30T14:02:11;9.68;;;5.30;;
58669;SDS011;44439;47.924;10.198;2024-01-30T14:04:36;10.20;;;6.55;;
58669;SDS011;44439;47.924;10.198;2024-01-30T14:07:02;10.45;;;5.78;;
58669;SDS011;44439;47.924;10.198;2024-01-30T14:09:28;7.40;;;5.07;;
58669;SDS011;44439;47.924;10.198;2024-01-30T14:11:54;6.60;;;4.35;;
58669;SDS011;44439;47.924;10.198;2024-01-30T14:14:19;7.60;;;4.47;;
58669;SDS011;44439;47.924;10.198;2024-01-30T14:16:45;7.43;;;4.47;;
58669;SDS011;44439;47.924;10.198;2024-01-30T14:19:10;6.97;;;4.35;;
58669;SDS011;44439;47.924;10.198;2024-01-30T14:21:35;7.07;;;3.95;;
58669;SDS011;44439;47.924;10.198;2024-01-30T14:24:02;5.20;;;4.03;;
58669;SDS011;44439;47.924;10.198;2024-01-30T14:26:27;21.42;;;14.88;;
58669;SDS011;44439;47.924;10.198;2024-01-30T14:28:53;6.20;;;4.43;;
58669;SDS011;44439;47.924;10.198;2024-01-30T14:31:20;10.20;;;6.85;;
58669;SDS011;44439;47.924;10.198;2024-01-30T14:33:46;10.07;;;4.47;;
58669;SDS011;44439;47.924;10.198;2024-01-30T14:36:11;7.18;;;3.90;;
58669;SDS011;44439;47.924;10.198;2024-01-30T14:38:37;6.22;;;3.95;;
58669;SDS011;44439;47.924;10.198;2024-01-30T14:41:02;7.63;;;4.07;;
58669;SDS011;44439;47.924;10.198;2024-01-30T14:43:29;5.75;;;4.07;;
58669;SDS011;44439;47.924;10.198;2024-01-30T14:45:55;8.98;;;4.00;;
58669;SDS011;44439;47.924;10.198;2024-01-30T14:48:20;6.97;;;3.97;;
58669;SDS011;44439;47.924;10.198;2024-01-30T14:50:46;6.85;;;4.47;;
58669;SDS011;44439;47.924;10.198;2024-01-30T14:53:11;5.93;;;4.07;;
58669;SDS011;44439;47.924;10.198;2024-01-30T14:55:39;6.38;;;3.80;;
58669;SDS011;44439;47.924;10.198;2024-01-30T14:58:14;5.93;;;3.72;;
58669;SDS011;44439;47.924;10.198;2024-01-30T15:00:39;6.45;;;3.97;;
58669;SDS011;44439;47.924;10.198;2024-01-30T15:03:04;10.65;;;4.35;;